Aérodrome :
LOGIN :

S'inscrire | Disclaimer

   EN    FR    IT 

 










Légende :    VFR   VFR Marginal   IFR   IFR Intensif   IFR Très Intensif
Visi : 
Plafond : 
>= 8 km
>= 3000ft
5 à 8 km
1000 à 3000 ft
1500m à 5 km
500 à 1000 ft
800 à 1500m
200 à 500 ft
< 800m
< 200 ft
Symboles :   Orages  Brouillard  Fortes neiges  Fortes précipitations  Vent > 20 kt
SIGMETs :   Divers  Orages  Givrage  Turbulence  Onde Orograph.  Cendres Volcan.






- Altitude de l'aérodrome : 915 ft
- Code IATA : LUG


LSZA - Lugano

DERNIER METAR :
  • 071450Z VRB01KT CAVOK 09/03 Q1017 NOSIG

METARs EXPIRÉS :
  • 071420Z 20002KT CAVOK 11/01 Q1017 NOSIG
  • 071350Z 20003KT CAVOK 10/00 Q1017 NOSIG
  • 071320Z VRB01KT CAVOK 11/M00 Q1017 NOSIG
  • 071250Z VRB02KT CAVOK 09/M00 Q1018 NOSIG
  • 071220Z 20003KT CAVOK 09/M00 Q1018 NOSIG

TAF TAF LSZA
Valide du 07 à 15h jusqu'au 08 à 00h UTC


071425Z 0715/0724 VRB03KT CAVOK
ATIS : +41 22 417 40 88



MET'MAP, la Météo Aéronautique d'un coup d'oeil ! - Copyright ORBIFLY Décembre 2007 - Disclaimer

ORBIFLY MET'MAP TEAM :

Programmation & Développement : Alexandra Zaïnal
Sur une idée originale de : Baudouin d'Aumeries
Assistance à la programmation : Marc-Olivier Méhu
Soutien technique & logistique : Manuel Goepfert

Contact : metmap@orbifly.com




SOURCES & CREDITS :

   NOAA